Puerto Escondido, Mexico

3:56 PM CDT on August 30, 2016 (GMT -0500)
Puerto Escondido | | Change Station

Elev 289 ft 15.88 °N, 97.09 °W | Updated 1 hour ago

Mostly Cloudy
Mostly Cloudy
84 °F
Feels Like 94 °F
N
7
Wind Variable Wind from South

Today
High -- | Low -- °F
--% Chance of Precip.
Yesterday
High -- | Low -- °F
Precip. -- in
Pressure 29.92 in
Visibility 15.0 miles
Clouds Few 1500 ft
Scattered Clouds 7000 ft
Mostly Cloudy 24000 ft
Heat Index 94 °F
Dew Point 77 °F
Humidity 79%
Rainfall 3.32 in
Snow Depth Not available.
7:15 AM 7:41 PM
Waning Crescent, 2% visible
METAR MMPS 301945Z 18006KT 15SM FEW015 SCT070 BKN240 29/25 A2992 RMK 8/132 HZY
Pressure 29.92 in
Visibility 15.0 miles
Clouds Few 1500 ft
Scattered Clouds 7000 ft
Mostly Cloudy 24000 ft
Heat Index 94 °F
Dew Point 77 °F
Humidity 79%
Rainfall 3.32 in
Snow Depth Not available.
7:15 AM 7:41 PM
Waning Crescent, 2% visible
METAR MMPS 301945Z 18006KT 15SM FEW015 SCT070 BKN240 29/25 A2992 RMK 8/132 HZY

10-Day Weather Forecast

No radar image for this location.
×

Almanac

Astronomy

Aug. 30, 2016 Rise Set
Actual Time
Civil Twilight
Nautical Twilight
Astronomical Twilight
Moon
Length of Visible Light
Length of Day
Tomorrow will be .
, % of the Moon is Illuminated

Today's Extremes

Country Highs Country Lows

Community

WunderPhotos

Upload Photos

1,935,889 photos uploaded!

WunderBlog® & News

Nearby

Air Quality

  Air Quality AQ Index Pollutant
Not available.

Snow Depth

Station Depth Elevation

Earthquake Activity

City Distance Mag. Time & Date
Minimum magnitude displayed is 2.5.

Coastal Water Temperatures

Place Temperature

Stations

Nearby Weather Stations

Station Location Temp. Windchill Dew Point Humidity Wind Precip. Elev Updated Type